createdAt,value
2019-01-20T00:03:29.297Z,27.37
2019-01-20T00:08:25.095Z,23.77
2019-01-20T00:13:20.737Z,21.27
2019-01-20T00:18:19.640Z,20.57
2019-01-20T00:23:15.821Z,18.83
2019-01-20T00:28:11.493Z,18.43
2019-01-20T00:33:07.106Z,18.77
2019-01-20T00:38:02.710Z,19.43
2019-01-20T00:42:58.409Z,18.73
2019-01-20T00:47:54.034Z,19.50
2019-01-20T00:52:49.701Z,18.77
2019-01-20T01:02:47.472Z,16.53
2019-01-20T01:07:43.073Z,17.20
2019-01-20T01:12:39.754Z,12.77
2019-01-20T01:17:36.723Z,12.67
2019-01-20T01:22:32.619Z,13.00
2019-01-20T01:27:28.419Z,12.97
2019-01-20T01:33:49.026Z,12.87
2019-01-20T01:38:44.843Z,12.50
2019-01-20T01:43:42.193Z,13.23
2019-01-20T01:48:38.088Z,14.23
2019-01-20T01:53:34.764Z,15.00
2019-01-20T01:58:30.397Z,14.50
2019-01-20T02:03:26.276Z,14.90
2019-01-20T02:08:22.185Z,13.43
2019-01-20T02:13:21.604Z,14.03
2019-01-20T02:18:17.464Z,13.97
2019-01-20T02:23:14.684Z,13.47
2019-01-20T02:28:10.504Z,13.70
2019-01-20T02:33:06.305Z,15.87
2019-01-20T10:21:09.188Z,9.47
2019-01-20T10:26:05.083Z,9.57
2019-01-20T10:36:06.156Z,9.67
2019-01-20T10:41:41.518Z,9.03
2019-01-20T10:46:38.810Z,8.73
2019-01-20T10:51:34.526Z,9.40
2019-01-20T10:56:30.293Z,9.93
2019-01-20T11:01:26.176Z,9.27
2019-01-20T11:06:21.951Z,7.80
2019-01-20T11:11:17.896Z,8.63
2019-01-20T11:16:14.696Z,7.47
2019-01-20T11:21:10.701Z,6.10
2019-01-20T11:26:06.904Z,8.03
2019-01-20T11:31:03.109Z,7.40
2019-01-20T11:35:59.007Z,8.10
2019-01-20T11:40:55.022Z,8.53
2019-01-20T11:45:51.127Z,9.47
2019-01-20T11:50:47.111Z,9.60
2019-01-20T11:55:42.889Z,9.07
2019-01-20T12:00:39.527Z,9.73
2019-01-20T12:05:37.044Z,10.13
2019-01-20T12:10:32.851Z,9.17
2019-01-20T12:15:28.650Z,9.43
2019-01-20T12:20:25.565Z,9.90
2019-01-20T12:25:21.487Z,9.93
2019-01-20T12:30:20.395Z,9.13
2019-01-20T12:35:16.244Z,9.70
2019-01-20T12:40:15.648Z,9.40
2019-01-20T12:45:11.622Z,8.30
2019-01-20T12:50:09.412Z,7.83
2019-01-20T12:55:05.643Z,9.40
2019-01-20T13:00:01.394Z,8.63
2019-01-20T13:04:57.151Z,8.10
2019-01-20T13:09:54.235Z,9.27
2019-01-20T13:14:50.044Z,9.83
2019-01-20T13:19:45.900Z,9.70
2019-01-20T13:24:41.630Z,9.07
2019-01-20T13:29:37.455Z,10.40
2019-01-20T13:34:33.243Z,10.70
2019-01-20T13:39:28.995Z,11.57
2019-01-20T13:44:24.759Z,13.13
2019-01-20T13:49:20.542Z,12.43
2019-01-20T13:54:16.323Z,12.60
2019-01-20T13:59:12.072Z,12.53
2019-01-20T14:04:07.852Z,11.77
2019-01-20T14:09:05.703Z,11.67
2019-01-20T14:14:01.787Z,12.37
2019-01-20T14:18:57.570Z,13.03
2019-01-20T14:23:53.640Z,14.40
2019-01-20T14:28:49.705Z,15.90
2019-01-20T14:33:46.145Z,16.63
2019-01-20T14:38:42.100Z,16.83
2019-01-20T14:43:39.426Z,16.87
2019-01-20T14:48:35.433Z,16.73
2019-01-20T14:53:31.178Z,17.50
2019-01-20T14:58:30.211Z,17.20
2019-01-20T15:03:26.247Z,17.13
2019-01-20T15:08:23.280Z,18.60
2019-01-20T15:13:19.671Z,19.27
2019-01-20T15:18:16.234Z,21.00
2019-01-20T15:23:12.476Z,20.50
2019-01-20T15:28:09.729Z,22.10
2019-01-20T15:33:06.300Z,21.47
2019-01-20T15:38:02.384Z,20.43
2019-01-20T15:42:58.758Z,20.53
2019-01-20T15:47:54.708Z,34.23
2019-01-20T15:52:52.485Z,159.87
2019-01-20T15:57:48.321Z,177.27
2019-01-20T16:02:44.285Z,94.80
2019-01-20T16:07:40.275Z,48.83
2019-01-20T16:12:36.202Z,30.47
2019-01-20T16:17:32.162Z,25.57
2019-01-20T16:22:28.123Z,23.67
2019-01-20T16:27:24.060Z,37.20
2019-01-20T16:32:19.869Z,28.13
2019-01-20T16:37:15.696Z,25.07
2019-01-20T16:42:11.524Z,23.10
2019-01-20T16:47:07.371Z,22.33
2019-01-20T16:52:03.201Z,22.33
2019-01-20T16:56:59.042Z,21.67
2019-01-20T17:01:54.848Z,21.70
2019-01-20T17:06:50.837Z,33.30
2019-01-20T17:11:46.970Z,28.07
2019-01-20T17:16:42.809Z,35.67
2019-01-20T17:21:39.512Z,45.57
2019-01-20T17:26:36.500Z,37.47
2019-01-20T17:31:32.303Z,31.03
2019-01-20T17:36:28.196Z,29.80
2019-01-20T17:41:23.995Z,37.40
2019-01-20T17:46:19.582Z,26.73
2019-01-20T17:51:15.214Z,26.70
2019-01-20T17:56:10.878Z,27.63
2019-01-20T18:01:06.720Z,23.97
2019-01-20T18:06:03.097Z,26.70
2019-01-20T18:10:58.850Z,25.03
2019-01-20T18:15:55.022Z,24.23
2019-01-20T18:20:51.134Z,27.53
2019-01-20T18:25:50.138Z,28.90
2019-01-20T18:30:46.105Z,24.77
2019-01-20T18:35:41.986Z,23.83
2019-01-20T18:40:40.212Z,24.70
2019-01-20T18:45:37.324Z,24.43
2019-01-20T18:50:35.121Z,23.90
2019-01-20T18:55:30.966Z,24.77
2019-01-20T19:00:29.189Z,24.03
2019-01-20T19:05:27.061Z,24.30
2019-01-20T19:10:22.859Z,24.10
2019-01-20T19:15:19.682Z,24.53
2019-01-20T19:20:17.678Z,24.50
2019-01-20T19:25:13.478Z,23.97
2019-01-20T19:30:15.922Z,25.73
2019-01-20T19:35:12.482Z,22.53
2019-01-20T19:40:09.545Z,25.87
2019-01-20T19:45:09.798Z,26.33
2019-01-20T19:54:13.741Z,24.33
2019-01-20T19:59:09.578Z,25.07
2019-01-20T20:04:05.617Z,23.17
2019-01-20T20:09:01.577Z,23.07
2019-01-20T20:13:59.101Z,25.07
2019-01-20T20:18:54.881Z,42.53
2019-01-20T20:23:50.744Z,26.80
2019-01-20T20:28:46.503Z,27.10
2019-01-20T20:33:44.593Z,30.87
2019-01-20T20:38:40.445Z,34.40
2019-01-20T20:43:36.265Z,29.50
2019-01-20T20:48:32.290Z,26.70
2019-01-20T20:53:28.148Z,25.67
2019-01-20T20:58:23.899Z,27.77
2019-01-20T21:03:22.149Z,29.00
2019-01-20T21:08:17.960Z,30.73
2019-01-20T21:13:13.683Z,31.53
2019-01-20T21:18:10.605Z,36.07
2019-01-20T21:23:12.077Z,37.20
2019-01-20T21:28:03.958Z,39.00
2019-01-20T21:32:59.872Z,36.10
2019-01-20T21:37:56.839Z,39.57
2019-01-20T21:42:52.683Z,37.40
2019-01-20T21:47:48.548Z,37.63
2019-01-20T21:52:44.350Z,38.33
2019-01-20T21:57:40.242Z,37.13
2019-01-20T22:02:36.222Z,37.80
2019-01-20T22:07:31.999Z,37.97
2019-01-20T22:12:27.683Z,34.37
2019-01-20T22:17:23.588Z,35.03
2019-01-20T22:22:19.293Z,35.13
2019-01-20T22:27:14.985Z,34.87
2019-01-20T22:32:10.576Z,33.40
2019-01-20T22:37:06.283Z,34.13
2019-01-20T22:42:02.036Z,33.63
2019-01-20T22:47:00.231Z,34.07
2019-01-20T22:51:54.934Z,33.07
2019-01-20T22:56:50.633Z,33.10
2019-01-20T23:01:46.362Z,31.97
2019-01-20T23:06:42.131Z,31.90
2019-01-20T23:11:37.832Z,31.20
2019-01-20T23:16:33.478Z,30.40
2019-01-20T23:21:29.199Z,30.60
2019-01-20T23:26:24.892Z,31.07
2019-01-20T23:31:20.537Z,32.43
2019-01-20T23:36:16.229Z,30.07
2019-01-20T23:41:11.896Z,29.10
2019-01-20T23:46:07.630Z,29.57
2019-01-20T23:51:03.359Z,29.27
2019-01-20T23:55:59.042Z,30.10
